createdAt,value
2023-03-01T00:00:23.794Z,61.77
2023-03-01T00:05:48.543Z,61.91
2023-03-01T00:11:16.564Z,60.38
2023-03-01T00:16:41.453Z,61.45
2023-03-01T00:22:03.278Z,61.46
2023-03-01T00:27:24.967Z,62.26
2023-03-01T00:32:46.973Z,62.61
2023-03-01T00:38:09.125Z,62.60
2023-03-01T00:43:31.817Z,62.25
2023-03-01T00:48:54.541Z,62.78
2023-03-01T00:54:16.246Z,62.46
2023-03-01T00:59:37.998Z,62.41
2023-03-01T01:05:00.111Z,62.17
2023-03-01T01:10:21.815Z,62.70
2023-03-01T01:15:43.553Z,61.60
2023-03-01T01:21:07.895Z,61.76
2023-03-01T01:26:32.302Z,62.84
2023-03-01T01:31:54.344Z,62.46
2023-03-01T01:37:16.129Z,61.05
2023-03-01T01:42:37.870Z,61.82
2023-03-01T01:48:05.601Z,62.49
2023-03-01T01:53:27.586Z,64.18
2023-03-01T01:58:50.229Z,63.84
2023-03-01T02:04:12.167Z,64.00
2023-03-01T02:09:36.413Z,64.06
2023-03-01T02:14:58.180Z,64.25
2023-03-01T02:20:25.740Z,63.46
2023-03-01T02:26:01.717Z,63.12
2023-03-01T02:31:42.065Z,63.33
2023-03-01T02:37:08.346Z,64.17
2023-03-01T02:42:37.202Z,63.16
2023-03-01T02:47:59.015Z,63.14
2023-03-01T02:53:33.373Z,63.02
2023-03-01T02:58:55.432Z,63.89
2023-03-01T03:04:19.471Z,64.12
2023-03-01T03:09:41.226Z,63.54
2023-03-01T03:15:09.585Z,63.57
2023-03-01T03:20:31.558Z,63.49
2023-03-01T03:25:53.268Z,62.95
2023-03-01T03:31:15.130Z,63.11
2023-03-01T03:36:36.876Z,63.13
2023-03-01T03:41:58.624Z,63.28
2023-03-01T03:47:20.353Z,63.03
2023-03-01T03:52:43.085Z,62.30
2023-03-01T03:58:07.904Z,62.65
2023-03-01T04:03:32.791Z,62.81
2023-03-01T04:08:59.213Z,62.37
2023-03-01T04:14:20.920Z,62.19
2023-03-01T04:19:44.946Z,62.44
2023-03-01T04:25:07.865Z,62.75
2023-03-01T04:30:29.847Z,63.04
2023-03-01T04:35:52.503Z,63.28
2023-03-01T04:41:16.069Z,64.22
2023-03-01T04:46:37.827Z,64.46
2023-03-01T04:52:03.081Z,63.84
2023-03-01T04:57:24.875Z,63.45
2023-03-01T05:02:58.537Z,63.59
2023-03-01T05:08:21.666Z,63.20
2023-03-01T05:13:43.437Z,62.99
2023-03-01T05:19:12.373Z,63.49
2023-03-01T05:24:36.111Z,63.67
2023-03-01T05:29:57.849Z,63.56
2023-03-01T05:35:20.093Z,62.88
2023-03-01T05:40:46.876Z,63.50
2023-03-01T05:46:13.547Z,63.41
2023-03-01T05:51:35.429Z,63.26
2023-03-01T05:56:57.279Z,61.95
2023-03-01T06:02:19.476Z,62.29
2023-03-01T06:07:42.027Z,63.02
2023-03-01T06:13:03.802Z,63.13
2023-03-01T06:18:25.759Z,62.51
2023-03-01T06:23:47.504Z,62.83
2023-03-01T06:29:09.662Z,62.78
2023-03-01T06:34:31.839Z,61.42
2023-03-01T06:39:53.545Z,62.57
2023-03-01T06:45:15.870Z,62.77
2023-03-01T06:50:39.261Z,62.81
2023-03-01T06:56:01.228Z,63.14
2023-03-01T07:01:23.078Z,63.47
2023-03-01T07:06:44.799Z,62.96
2023-03-01T07:12:06.945Z,63.26
2023-03-01T07:17:28.779Z,62.85
2023-03-01T07:22:50.484Z,62.93
2023-03-01T07:28:12.210Z,63.00
2023-03-01T07:33:33.973Z,63.36
2023-03-01T07:38:56.729Z,62.60
2023-03-01T07:44:18.530Z,63.83
2023-03-01T07:49:40.280Z,63.20
2023-03-01T07:55:02.024Z,62.91
2023-03-01T08:00:24.079Z,62.44
2023-03-01T08:05:45.798Z,63.01
2023-03-01T08:11:10.848Z,63.35
2023-03-01T08:16:34.518Z,62.91
2023-03-01T08:21:59.137Z,61.99
2023-03-01T08:27:20.921Z,62.37
2023-03-01T08:32:42.889Z,61.74
2023-03-01T08:38:04.844Z,62.72
2023-03-01T08:43:26.599Z,61.77
2023-03-01T08:48:48.644Z,61.98
2023-03-01T08:54:15.972Z,61.56
2023-03-01T08:59:38.340Z,62.59
2023-03-01T09:05:00.124Z,61.76
2023-03-01T09:10:22.006Z,61.62
2023-03-01T09:15:43.760Z,60.20
2023-03-01T09:21:08.310Z,60.07
2023-03-01T09:26:30.547Z,59.57
2023-03-01T09:31:55.968Z,59.35
2023-03-01T09:37:17.764Z,59.92
2023-03-01T09:42:49.947Z,59.87
2023-03-01T09:48:17.691Z,58.94
2023-03-01T09:53:39.603Z,59.28
2023-03-01T09:59:21.733Z,58.58
2023-03-01T10:04:49.984Z,56.82
2023-03-01T10:10:26.769Z,56.36
2023-03-01T10:15:57.002Z,55.96
2023-03-01T10:21:20.716Z,55.45
2023-03-01T10:26:50.032Z,54.77
2023-03-01T10:32:12.223Z,54.45
2023-03-01T10:37:34.019Z,54.39
2023-03-01T10:42:59.767Z,54.28
2023-03-01T10:48:27.859Z,53.56
2023-03-01T10:53:51.781Z,53.29
2023-03-01T10:59:26.102Z,52.98
2023-03-01T11:05:24.711Z,52.45
2023-03-01T11:10:46.495Z,52.37
2023-03-01T11:16:13.114Z,50.91
2023-03-01T11:21:37.744Z,50.77
2023-03-01T11:27:03.511Z,50.10
2023-03-01T11:32:29.176Z,50.07
2023-03-01T11:38:02.826Z,49.50
2023-03-01T11:43:37.736Z,49.02
2023-03-01T11:49:17.824Z,49.39
2023-03-01T11:55:04.962Z,48.80
2023-03-01T12:00:43.694Z,48.77
2023-03-01T12:06:32.749Z,48.39
2023-03-01T12:12:24.656Z,48.33
2023-03-01T12:18:00.464Z,47.57
2023-03-01T12:23:25.387Z,47.24
2023-03-01T12:29:00.725Z,46.38
2023-03-01T12:34:32.183Z,46.59
2023-03-01T12:40:05.539Z,46.29
2023-03-01T12:45:55.448Z,45.61
2023-03-01T12:51:23.484Z,45.51
2023-03-01T12:56:53.182Z,45.25
2023-03-01T13:02:38.409Z,45.61
2023-03-01T13:08:05.131Z,44.50
2023-03-01T13:13:28.891Z,45.85
2023-03-01T13:18:50.661Z,45.20
2023-03-01T13:24:39.577Z,45.36
2023-03-01T13:30:04.532Z,44.87
2023-03-01T13:35:42.467Z,45.15
2023-03-01T13:41:05.606Z,44.66
2023-03-01T13:46:27.563Z,44.79
2023-03-01T13:51:52.832Z,45.53
2023-03-01T13:57:23.682Z,46.11
2023-03-01T14:02:45.450Z,45.79
2023-03-01T14:08:23.621Z,45.97
2023-03-01T14:14:10.580Z,46.22
2023-03-01T14:19:34.336Z,45.90
2023-03-01T14:25:03.306Z,46.70
2023-03-01T14:30:28.872Z,46.16
2023-03-01T14:35:54.850Z,46.92
2023-03-01T14:41:20.579Z,46.68
2023-03-01T14:46:45.211Z,46.36
2023-03-01T14:52:23.079Z,46.92
2023-03-01T14:57:49.152Z,46.75
2023-03-01T15:03:24.542Z,46.23
2023-03-01T15:08:51.338Z,46.17
2023-03-01T15:14:47.323Z,46.89
2023-03-01T15:20:19.440Z,46.92
2023-03-01T15:25:46.019Z,46.77
2023-03-01T15:31:36.933Z,46.99
2023-03-01T15:37:01.563Z,46.14
2023-03-01T15:42:26.368Z,47.05
2023-03-01T15:47:54.621Z,46.88
2023-03-01T15:53:16.477Z,46.96
2023-03-01T15:58:38.215Z,46.86
2023-03-01T16:03:59.976Z,47.18
2023-03-01T16:09:24.121Z,46.67
2023-03-01T16:14:45.838Z,46.84
2023-03-01T16:20:09.909Z,47.01
2023-03-01T16:25:33.324Z,47.04
2023-03-01T16:30:55.195Z,46.63
2023-03-01T16:36:19.777Z,47.49
2023-03-01T16:41:41.530Z,47.61
2023-03-01T16:47:03.338Z,47.95
2023-03-01T16:52:25.187Z,48.42
2023-03-01T16:57:46.913Z,48.94
2023-03-01T17:03:08.767Z,48.50
2023-03-01T17:08:30.690Z,48.60
2023-03-01T17:13:52.423Z,48.95
2023-03-01T17:19:18.517Z,49.04
2023-03-01T17:24:41.755Z,49.74
2023-03-01T17:30:04.894Z,50.02
2023-03-01T17:35:26.639Z,51.27
2023-03-01T17:40:48.624Z,51.16
2023-03-01T17:46:11.244Z,51.17
2023-03-01T17:51:33.428Z,50.76
2023-03-01T17:56:56.397Z,50.40
2023-03-01T18:02:19.485Z,50.82
2023-03-01T18:07:41.378Z,51.28
2023-03-01T18:13:04.997Z,51.71
2023-03-01T18:18:30.128Z,52.57
2023-03-01T18:23:52.992Z,52.08
2023-03-01T18:29:14.833Z,52.52
2023-03-01T18:34:36.586Z,52.78
2023-03-01T18:39:58.295Z,53.39
2023-03-01T18:45:20.062Z,53.08
2023-03-01T18:50:42.298Z,54.02
2023-03-01T18:56:04.435Z,53.76
2023-03-01T19:01:28.452Z,53.67
2023-03-01T19:06:50.510Z,54.43
2023-03-01T19:12:12.312Z,54.82
2023-03-01T19:17:34.634Z,55.18
2023-03-01T19:22:56.365Z,55.18
2023-03-01T19:28:18.110Z,55.63
2023-03-01T19:33:40.270Z,55.60
2023-03-01T19:39:05.105Z,55.78
2023-03-01T19:44:26.925Z,55.43
2023-03-01T19:49:48.688Z,55.26
2023-03-01T19:55:11.099Z,56.25
2023-03-01T20:00:34.386Z,56.29
2023-03-01T20:05:56.664Z,56.63
2023-03-01T20:11:19.869Z,56.74
2023-03-01T20:16:44.331Z,56.66
2023-03-01T20:22:06.177Z,56.77
2023-03-01T20:27:28.006Z,55.93
2023-03-01T20:32:49.737Z,55.33
2023-03-01T20:38:11.548Z,56.14
2023-03-01T20:43:34.645Z,56.09
2023-03-01T20:48:56.547Z,56.20
2023-03-01T20:54:18.433Z,56.11
2023-03-01T20:59:40.198Z,55.08
2023-03-01T21:05:02.135Z,56.09
2023-03-01T21:10:24.017Z,56.53
2023-03-01T21:15:57.300Z,57.14
2023-03-01T21:21:21.408Z,57.34
2023-03-01T21:26:43.188Z,57.75
2023-03-01T21:32:06.445Z,57.83
2023-03-01T21:37:28.590Z,57.82
2023-03-01T21:42:50.337Z,58.35
2023-03-01T21:48:12.050Z,58.09
2023-03-01T21:53:36.052Z,58.53
2023-03-01T21:58:58.509Z,58.01
2023-03-01T22:04:22.397Z,58.81
2023-03-01T22:09:45.529Z,58.41
2023-03-01T22:15:07.813Z,57.97
2023-03-01T22:20:29.538Z,58.51
2023-03-01T22:25:51.248Z,58.53
2023-03-01T22:31:12.987Z,59.62
2023-03-01T22:36:35.262Z,59.59
2023-03-01T22:41:56.972Z,60.34
2023-03-01T22:47:18.724Z,60.78
2023-03-01T22:52:40.510Z,60.65
2023-03-01T22:58:02.233Z,60.23
2023-03-01T23:03:24.011Z,60.65
2023-03-01T23:08:50.942Z,61.76
2023-03-01T23:14:13.202Z,61.74
2023-03-01T23:19:34.936Z,61.68
2023-03-01T23:24:56.656Z,61.35
2023-03-01T23:30:18.475Z,61.50
2023-03-01T23:35:40.271Z,61.76
2023-03-01T23:41:02.048Z,61.91
2023-03-01T23:46:27.176Z,62.06
2023-03-01T23:51:48.943Z,62.57
2023-03-01T23:57:10.673Z,61.81
